Time;durP1;ratioP1;P1;durP2;ratioP2;P2;SDS_P1;SDS_P2;PMS_P1;PMS_P2;Temp;Humidity;BMP_temperature;BMP_pressure;BME280_temperature;BME280_humidity;BME280_pressure;Samples;Min_cycle;Max_cycle;Signal;HPM_P1;HPM_P2
2024/01/07 00:00:06;;;;;;;0.63;0.63;;;;;;;6.08;100.00;93135.09;5073816;28;20210;-77
2024/01/07 00:02:33;;;;;;;0.20;0.20;;;;;;;6.15;100.00;93150.69;5086649;28;20593;-78
2024/01/07 00:05:01;;;;;;;0.40;0.40;;;;;;;6.01;100.00;93145.66;5072100;28;20571;-77
2024/01/07 00:07:29;;;;;;;0.63;0.63;;;;;;;6.07;100.00;93130.84;5071971;28;20203;-77
2024/01/07 00:09:56;;;;;;;0.20;0.20;;;;;;;6.12;100.00;93121.78;5072491;28;20528;-76
2024/01/07 00:12:24;;;;;;;1.55;0.95;;;;;;;6.12;100.00;93119.88;5071401;28;20659;-76
2024/01/07 00:14:51;;;;;;;0.82;0.25;;;;;;;6.23;100.00;93121.00;5074418;28;20199;-77
2024/01/07 00:17:20;;;;;;;0.82;0.82;;;;;;;5.98;100.00;93114.06;5072080;28;20249;-77
2024/01/07 00:19:47;;;;;;;0.32;0.32;;;;;;;5.98;100.00;93106.78;5089024;28;20213;-77
2024/01/07 00:22:14;;;;;;;0.88;0.82;;;;;;;6.00;100.00;93106.44;5087260;28;20209;-78
2024/01/07 00:24:42;;;;;;;1.55;1.45;;;;;;;6.07;100.00;93098.59;5071256;28;20211;-77
2024/01/07 00:27:09;;;;;;;0.55;0.55;;;;;;;6.05;100.00;93098.16;5079105;28;20209;-76
2024/01/07 00:29:37;;;;;;;1.00;0.70;;;;;;;5.59;100.00;93102.81;5075492;28;20621;-76
2024/01/07 00:32:04;;;;;;;0.38;0.38;;;;;;;5.64;100.00;93091.84;5070548;28;20260;-76
2024/01/07 00:34:31;;;;;;;2.50;0.95;;;;;;;5.58;100.00;93079.75;5070744;28;20244;-76
2024/01/07 00:36:57;;;;;;;0.20;0.20;;;;;;;5.50;100.00;93072.56;5072261;28;20202;-76
2024/01/07 00:39:24;;;;;;;0.90;0.90;;;;;;;5.62;100.00;93072.56;5075926;28;20636;-77
2024/01/07 00:41:52;;;;;;;0.85;0.82;;;;;;;5.59;100.00;93070.59;5084691;28;20198;-75
2024/01/07 00:44:19;;;;;;;0.40;0.40;;;;;;;5.64;100.00;93075.72;5069805;28;20586;-75
2024/01/07 00:46:46;;;;;;;0.40;0.40;;;;;;;5.82;100.00;93070.91;5070729;28;20553;-76
2024/01/07 00:49:13;;;;;;;1.00;1.00;;;;;;;5.74;100.00;93054.91;5070440;28;20893;-77
2024/01/07 00:51:40;;;;;;;3.13;1.48;;;;;;;6.06;100.00;93056.72;5088391;28;20251;-76
2024/01/07 00:54:06;;;;;;;3.13;0.73;;;;;;;6.17;100.00;93041.69;5091722;28;20202;-76
2024/01/07 00:56:33;;;;;;;0.68;0.57;;;;;;;6.17;100.00;93047.06;5090539;28;20489;-77
2024/01/07 00:59:02;;;;;;;2.65;0.93;;;;;;;5.95;100.00;93039.47;5091413;28;20229;-76
2024/01/07 01:01:28;;;;;;;2.63;1.30;;;;;;;6.21;100.00;93041.81;5091550;28;20209;-75
2024/01/07 01:03:57;;;;;;;0.73;0.73;;;;;;;5.98;100.00;93038.81;5086733;28;20211;-75
2024/01/07 01:06:24;;;;;;;0.98;0.60;;;;;;;5.79;100.00;93038.56;5088151;28;20206;-77
2024/01/07 01:08:51;;;;;;;2.15;1.35;;;;;;;5.55;100.00;93034.75;5092767;28;20285;-77
2024/01/07 01:11:18;;;;;;;1.33;1.23;;;;;;;5.88;100.00;93023.09;5090844;28;20210;-77
2024/01/07 01:13:44;;;;;;;0.30;0.30;;;;;;;6.13;100.00;93030.06;5090403;28;20194;-76
2024/01/07 01:16:13;;;;;;;0.68;0.60;;;;;;;6.17;100.00;93006.75;5091163;28;20202;-77
2024/01/07 01:18:40;;;;;;;1.10;1.05;;;;;;;6.34;100.00;92998.41;5090697;28;20214;-75
2024/01/07 01:21:07;;;;;;;4.85;1.58;;;;;;;6.39;100.00;92995.50;5091306;28;20556;-77
2024/01/07 01:23:34;;;;;;;1.95;1.15;;;;;;;6.26;100.00;92985.13;5089338;28;20202;-77
2024/01/07 01:26:01;;;;;;;0.85;0.75;;;;;;;6.16;100.00;92975.59;5090375;28;20621;-76
2024/01/07 01:28:28;;;;;;;0.30;0.30;;;;;;;6.29;100.00;92974.44;5091029;28;20579;-76
2024/01/07 01:30:55;;;;;;;0.30;0.30;;;;;;;6.20;100.00;92964.97;5092095;28;20249;-77
2024/01/07 01:33:23;;;;;;;1.08;1.08;;;;;;;6.10;100.00;92954.69;5089299;28;20760;-77
2024/01/07 01:35:53;;;;;;;1.40;1.10;;;;;;;6.39;100.00;92960.53;5090876;28;20221;-77
2024/01/07 01:38:20;;;;;;;0.95;0.73;;;;;;;6.59;100.00;92955.28;5090550;28;20226;-77
2024/01/07 01:40:52;;;;;;;0.45;0.45;;;;;;;6.73;100.00;92944.91;5090792;28;20209;-76
2024/01/07 01:43:24;;;;;;;0.30;0.30;;;;;;;6.89;100.00;92934.94;5090436;28;20197;-77
2024/01/07 01:45:51;;;;;;;0.20;0.20;;;;;;;6.78;100.00;92931.22;5090698;28;20293;-77
2024/01/07 01:48:17;;;;;;;1.30;0.95;;;;;;;6.72;100.00;92927.19;5092343;28;20206;-76
2024/01/07 01:50:47;;;;;;;0.85;0.85;;;;;;;6.59;100.00;92912.25;5088830;28;20238;-78
2024/01/07 01:53:14;;;;;;;0.40;0.40;;;;;;;6.45;100.00;92895.75;5091373;28;20715;-76
2024/01/07 01:55:42;;;;;;;1.17;1.15;;;;;;;6.41;100.00;92898.34;5089236;28;20509;-76
2024/01/07 01:58:10;;;;;;;0.43;0.43;;;;;;;6.50;100.00;92893.59;5093965;28;20232;-77
2024/01/07 02:00:37;;;;;;;0.20;0.20;;;;;;;6.55;100.00;92897.94;5095982;28;20210;-76
2024/01/07 02:03:04;;;;;;;1.17;0.90;;;;;;;6.43;100.00;92893.38;5094833;28;20202;-74
2024/01/07 02:05:31;;;;;;;0.32;0.32;;;;;;;6.42;100.00;92900.66;5096273;28;20198;-75
2024/01/07 02:08:00;;;;;;;0.30;0.30;;;;;;;6.48;100.00;92906.59;5096703;28;20606;-75
2024/01/07 02:10:28;;;;;;;0.55;0.55;;;;;;;6.57;100.00;92909.13;5092349;28;20198;-75
2024/01/07 02:12:56;;;;;;;1.25;1.23;;;;;;;6.64;100.00;92903.94;5094767;28;20247;-75
2024/01/07 02:15:23;;;;;;;3.85;1.77;;;;;;;6.48;100.00;92889.69;5094114;28;20628;-75
2024/01/07 02:17:50;;;;;;;1.77;1.67;;;;;;;6.66;100.00;92888.25;5097763;28;20268;-74
2024/01/07 02:20:17;;;;;;;0.55;0.55;;;;;;;6.72;100.00;92882.25;5095026;28;20202;-75
2024/01/07 02:22:43;;;;;;;0.30;0.30;;;;;;;6.51;100.00;92872.84;5095656;28;20206;-75
2024/01/07 02:25:12;;;;;;;0.70;0.35;;;;;;;6.92;100.00;92842.75;5094845;28;20221;-75
2024/01/07 02:27:38;;;;;;;0.20;0.20;;;;;;;7.53;100.00;92809.09;5098733;28;20201;-76
2024/01/07 02:30:09;;;;;;;0.55;0.55;;;;;;;7.72;100.00;92812.59;5090746;28;20198;-75
2024/01/07 02:32:37;;;;;;;0.13;0.13;;;;;;;8.15;100.00;92803.44;5094981;28;20289;-74
2024/01/07 02:35:05;;;;;;;1.75;1.65;;;;;;;8.66;100.00;92787.03;5094669;28;20619;-75
2024/01/07 02:37:32;;;;;;;0.30;0.30;;;;;;;8.98;100.00;92784.84;5092952;28;20207;-76
2024/01/07 02:39:59;;;;;;;0.45;0.45;;;;;;;9.14;100.00;92796.28;5095882;28;20248;-74
2024/01/07 02:42:27;;;;;;;0.20;0.20;;;;;;;9.26;100.00;92785.28;5090541;28;20266;-75
2024/01/07 02:44:54;;;;;;;2.97;0.75;;;;;;;9.38;100.00;92797.00;5093219;28;20214;-76
2024/01/07 02:47:21;;;;;;;0.32;0.32;;;;;;;9.41;100.00;92791.66;5095752;28;20205;-75
2024/01/07 02:49:48;;;;;;;0.88;0.52;;;;;;;9.45;100.00;92797.09;5087499;28;20234;-75
2024/01/07 02:52:14;;;;;;;0.40;0.40;;;;;;;9.50;100.00;92800.28;5077815;28;20244;-76
2024/01/07 02:54:41;;;;;;;0.40;0.40;;;;;;;9.59;100.00;92794.59;5070075;28;20210;-74
2024/01/07 02:57:08;;;;;;;0.40;0.40;;;;;;;9.84;100.00;92798.38;5071606;28;20201;-76
2024/01/07 02:59:36;;;;;;;1.73;0.43;;;;;;;9.92;100.00;92800.06;5073469;28;20226;-76
2024/01/07 03:02:03;;;;;;;0.28;0.28;;;;;;;9.97;100.00;92813.25;5076184;28;20214;-75
2024/01/07 03:04:29;;;;;;;2.75;1.08;;;;;;;10.02;100.00;92816.78;5071157;28;20206;-75
2024/01/07 03:06:56;;;;;;;0.20;0.20;;;;;;;10.08;100.00;92807.19;5075429;28;20607;-75
2024/01/07 03:09:23;;;;;;;0.20;0.20;;;;;;;10.10;100.00;92804.91;5072319;28;20199;-75
2024/01/07 03:11:50;;;;;;;0.20;0.20;;;;;;;10.12;100.00;92818.81;5074105;28;20597;-75
2024/01/07 03:14:20;;;;;;;0.17;0.17;;;;;;;10.06;100.00;92820.31;5074815;28;20272;-75
2024/01/07 03:16:48;;;;;;;0.28;0.28;;;;;;;10.01;100.00;92828.72;5077012;28;20364;-75
2024/01/07 03:19:20;;;;;;;0.20;0.20;;;;;;;9.99;100.00;92832.59;5071717;28;20234;-75
2024/01/07 03:21:50;;;;;;;0.20;0.20;;;;;;;10.06;100.00;92831.13;5074847;28;20203;-74
2024/01/07 03:24:16;;;;;;;0.75;0.73;;;;;;;9.95;100.00;92837.19;5071721;28;20199;-75
2024/01/07 03:26:44;;;;;;;0.30;0.30;;;;;;;9.91;100.00;92841.75;5073759;28;20206;-74
2024/01/07 03:29:10;;;;;;;0.20;0.20;;;;;;;9.91;100.00;92841.75;5072560;28;20257;-75
2024/01/07 03:31:37;;;;;;;0.20;0.20;;;;;;;9.12;100.00;92838.31;5071482;28;20671;-76
2024/01/07 03:34:07;;;;;;;0.32;0.32;;;;;;;8.73;100.00;92838.44;5072240;28;20257;-74
2024/01/07 03:36:34;;;;;;;0.65;0.65;;;;;;;8.47;100.00;92835.66;5074162;28;20618;-75
2024/01/07 03:39:01;;;;;;;0.57;0.57;;;;;;;8.45;100.00;92827.94;5074873;28;20242;-74
2024/01/07 03:41:28;;;;;;;0.45;0.45;;;;;;;8.13;100.00;92826.50;5094045;28;20315;-74
2024/01/07 03:43:56;;;;;;;0.47;0.47;;;;;;;8.26;100.00;92817.13;5093339;28;20217;-74
2024/01/07 03:46:25;;;;;;;1.05;1.05;;;;;;;7.94;100.00;92816.50;5092439;28;20211;-74
2024/01/07 03:48:54;;;;;;;0.40;0.40;;;;;;;8.04;100.00;92817.88;5092960;28;20213;-73
2024/01/07 03:51:23;;;;;;;0.40;0.40;;;;;;;8.02;100.00;92820.13;5110465;28;20244;-75
2024/01/07 03:53:49;;;;;;;0.20;0.20;;;;;;;7.83;100.00;92824.38;5105913;28;20721;-75
2024/01/07 03:56:19;;;;;;;0.85;0.85;;;;;;;7.77;100.00;92825.81;5083030;28;20210;-75
2024/01/07 03:58:46;;;;;;;0.30;0.30;;;;;;;7.89;100.00;92816.03;5110531;28;20321;-75
2024/01/07 04:01:17;;;;;;;0.65;0.65;;;;;;;7.89;100.00;92821.41;5111547;28;20654;-75
2024/01/07 04:03:49;;;;;;;0.10;0.10;;;;;;;7.63;100.00;92809.34;5091954;28;20216;-74
2024/01/07 04:06:17;;;;;;;0.75;0.75;;;;;;;7.52;100.00;92808.31;5093115;28;20668;-74
2024/01/07 04:08:45;;;;;;;0.20;0.20;;;;;;;7.45;100.00;92803.59;5091776;28;20259;-75
2024/01/07 04:11:12;;;;;;;0.55;0.55;;;;;;;7.44;100.00;92802.03;5092341;28;20202;-75
2024/01/07 04:13:38;;;;;;;2.20;0.68;;;;;;;7.48;100.00;92802.09;5091897;28;20206;-76
2024/01/07 04:16:05;;;;;;;1.05;0.82;;;;;;;7.61;100.00;92800.06;5092238;28;20651;-76
2024/01/07 04:18:36;;;;;;;0.75;0.50;;;;;;;7.70;100.00;92808.69;5091242;28;20252;-76
2024/01/07 04:21:03;;;;;;;0.22;0.22;;;;;;;7.74;100.00;92804.97;5092698;28;20253;-76
2024/01/07 04:23:30;;;;;;;0.30;0.30;;;;;;;7.71;100.00;92805.66;5074215;28;20279;-76
2024/01/07 04:26:01;;;;;;;0.40;0.40;;;;;;;7.72;100.00;92804.53;5092238;28;20210;-75
2024/01/07 04:28:27;;;;;;;0.25;0.25;;;;;;;7.78;100.00;92805.81;5091891;28;20198;-76
2024/01/07 04:30:54;;;;;;;0.30;0.30;;;;;;;7.89;100.00;92794.47;5091855;28;20210;-75
2024/01/07 04:33:21;;;;;;;0.90;0.88;;;;;;;7.92;100.00;92780.28;5091451;28;20214;-75
2024/01/07 04:35:51;;;;;;;0.50;0.50;;;;;;;7.82;100.00;92784.31;5092074;28;20202;-74
2024/01/07 04:38:21;;;;;;;0.20;0.20;;;;;;;7.74;100.00;92769.94;5091297;28;20225;-75
2024/01/07 04:40:49;;;;;;;0.30;0.30;;;;;;;7.74;100.00;92766.44;5092004;28;20210;-75
2024/01/07 04:43:18;;;;;;;0.20;0.20;;;;;;;7.90;100.00;92769.06;5092218;28;20267;-75
2024/01/07 04:45:44;;;;;;;0.50;0.50;;;;;;;8.04;100.00;92763.94;5092132;28;20582;-75
2024/01/07 04:48:14;;;;;;;0.20;0.20;;;;;;;7.99;100.00;92777.72;5092022;28;20594;-75
2024/01/07 04:50:41;;;;;;;0.50;0.50;;;;;;;7.91;100.00;92776.03;5091696;28;20341;-75
2024/01/07 04:53:08;;;;;;;0.40;0.40;;;;;;;7.79;100.00;92780.41;5092124;28;20267;-75
2024/01/07 04:55:35;;;;;;;0.38;0.38;;;;;;;7.97;100.00;92782.66;5091346;28;20714;-76
2024/01/07 04:58:04;;;;;;;0.30;0.30;;;;;;;7.95;100.00;92784.94;5091403;28;20618;-76
2024/01/07 05:00:36;;;;;;;0.35;0.35;;;;;;;7.93;100.00;92784.50;5091737;28;20279;-75
2024/01/07 05:03:04;;;;;;;0.20;0.20;;;;;;;7.88;100.00;92779.44;5104880;28;20205;-75
2024/01/07 05:05:31;;;;;;;0.20;0.20;;;;;;;7.90;100.00;92785.25;5111848;28;20206;-76
2024/01/07 05:07:59;;;;;;;0.25;0.25;;;;;;;7.47;100.00;92779.00;5112182;28;20554;-75
2024/01/07 05:10:25;;;;;;;0.50;0.50;;;;;;;7.43;100.00;92767.34;5111556;28;20212;-77
2024/01/07 05:12:52;;;;;;;1.10;0.30;;;;;;;7.19;100.00;92778.38;5111707;28;20217;-76
2024/01/07 05:15:19;;;;;;;0.20;0.20;;;;;;;7.30;100.00;92774.00;5111979;28;20205;-76
2024/01/07 05:17:49;;;;;;;0.57;0.57;;;;;;;7.37;100.00;92766.88;5111956;28;20274;-76
2024/01/07 05:20:17;;;;;;;0.25;0.25;;;;;;;7.33;100.00;92774.09;5111872;28;20599;-76
2024/01/07 05:22:44;;;;;;;0.30;0.30;;;;;;;7.48;100.00;92781.34;5111980;28;20300;-76
2024/01/07 05:25:10;;;;;;;0.55;0.55;;;;;;;7.28;100.00;92766.28;5112303;28;20205;-76
2024/01/07 05:27:37;;;;;;;0.30;0.30;;;;;;;7.53;100.00;92776.78;5111815;28;20220;-76
2024/01/07 05:30:08;;;;;;;0.65;0.65;;;;;;;7.47;100.00;92771.69;5114394;28;20524;-76
2024/01/07 05:32:34;;;;;;;1.42;0.88;;;;;;;7.46;100.00;92769.34;5115684;28;20262;-76
2024/01/07 05:35:03;;;;;;;0.68;0.68;;;;;;;7.68;100.00;92763.25;5115807;28;20619;-77
2024/01/07 05:37:30;;;;;;;0.20;0.20;;;;;;;7.86;100.00;92774.38;5113147;28;20581;-76
2024/01/07 05:40:02;;;;;;;0.32;0.32;;;;;;;8.07;100.00;92782.09;5095329;28;20237;-77
2024/01/07 05:42:33;;;;;;;0.40;0.40;;;;;;;7.93;100.00;92761.03;5095182;28;20259;-76
2024/01/07 05:45:00;;;;;;;0.40;0.40;;;;;;;7.98;100.00;92749.97;5095588;28;20206;-76
2024/01/07 05:47:27;;;;;;;0.73;0.68;;;;;;;7.81;100.00;92751.19;5095479;28;20236;-76
2024/01/07 05:49:54;;;;;;;1.92;0.93;;;;;;;7.82;100.00;92763.53;5095379;28;20244;-77
2024/01/07 05:52:25;;;;;;;0.77;0.65;;;;;;;7.55;100.00;92771.81;5094613;28;20223;-76
2024/01/07 05:54:54;;;;;;;0.20;0.20;;;;;;;7.39;100.00;92796.13;5095409;28;20293;-76
2024/01/07 05:57:20;;;;;;;0.20;0.20;;;;;;;7.37;100.00;92785.72;5095088;28;20285;-77
2024/01/07 05:59:47;;;;;;;1.13;0.43;;;;;;;7.47;100.00;92789.75;5094508;28;20237;-76
2024/01/07 06:02:14;;;;;;;1.08;0.75;;;;;;;7.58;100.00;92790.75;5101020;28;20209;-76
2024/01/07 06:04:41;;;;;;;0.52;0.40;;;;;;;7.42;100.00;92765.78;5115492;28;20206;-76
2024/01/07 06:07:08;;;;;;;1.45;0.63;;;;;;;7.22;100.00;92750.75;5114789;28;20206;-76
2024/01/07 06:09:36;;;;;;;0.75;0.75;;;;;;;7.32;100.00;92752.91;5115630;28;20292;-76
2024/01/07 06:12:04;;;;;;;0.40;0.40;;;;;;;7.43;100.00;92761.97;5115089;28;20210;-76
2024/01/07 06:14:30;;;;;;;0.52;0.52;;;;;;;7.53;100.00;92771.41;5114988;28;20210;-76
2024/01/07 06:16:57;;;;;;;0.45;0.45;;;;;;;7.43;100.00;92770.03;5115479;28;20217;-76
2024/01/07 06:19:24;;;;;;;3.17;1.88;;;;;;;7.62;100.00;92772.75;5115543;28;20321;-75
2024/01/07 06:21:51;;;;;;;0.28;0.28;;;;;;;7.59;100.00;92753.81;5115623;28;20565;-76
2024/01/07 06:24:17;;;;;;;0.85;0.63;;;;;;;7.53;100.00;92764.09;5115186;28;20205;-76
2024/01/07 06:26:46;;;;;;;0.28;0.28;;;;;;;7.47;100.00;92763.63;5115097;28;20213;-76
2024/01/07 06:29:12;;;;;;;0.20;0.20;;;;;;;7.46;100.00;92777.44;5115034;28;20622;-75
2024/01/07 06:31:44;;;;;;;0.77;0.73;;;;;;;7.20;100.00;92774.56;5114838;28;20645;-76
2024/01/07 06:34:13;;;;;;;0.40;0.40;;;;;;;7.16;100.00;92773.69;5114828;28;20210;-75
2024/01/07 06:36:40;;;;;;;0.70;0.70;;;;;;;7.26;100.00;92776.63;5114603;28;20503;-75
2024/01/07 06:39:07;;;;;;;0.30;0.30;;;;;;;7.33;100.00;92782.16;5114302;28;20205;-75
2024/01/07 06:41:34;;;;;;;0.43;0.43;;;;;;;7.33;100.00;92800.22;5104555;28;20202;-76
2024/01/07 06:44:02;;;;;;;0.30;0.30;;;;;;;7.45;100.00;92802.81;5093906;28;20214;-76
2024/01/07 06:46:29;;;;;;;0.38;0.38;;;;;;;7.45;100.00;92800.09;5094496;28;20220;-76
2024/01/07 06:48:56;;;;;;;0.85;0.85;;;;;;;7.57;100.00;92805.38;5094117;28;20214;-75
2024/01/07 06:51:22;;;;;;;1.75;1.17;;;;;;;8.01;100.00;92792.41;5094651;28;20667;-77
2024/01/07 06:53:50;;;;;;;1.10;0.95;;;;;;;10.75;100.00;92785.47;5094470;28;20198;-78
2024/01/07 06:56:17;;;;;;;8.68;0.73;;;;;;;10.16;100.00;92781.78;5094995;28;20597;-78
2024/01/07 06:58:44;;;;;;;1.35;1.25;;;;;;;9.65;100.00;92790.44;5094410;28;20611;-78
2024/01/07 07:01:13;;;;;;;2.08;1.65;;;;;;;9.24;100.00;92798.38;5093756;28;20561;-77
2024/01/07 07:03:42;;;;;;;0.30;0.30;;;;;;;8.81;100.00;92802.31;5101983;28;20206;-77
2024/01/07 07:06:08;;;;;;;1.25;1.15;;;;;;;8.91;100.00;92796.31;5093153;28;20289;-78
2024/01/07 07:08:35;;;;;;;0.65;0.65;;;;;;;8.59;100.00;92805.03;5094367;28;20213;-75
2024/01/07 07:11:02;;;;;;;0.30;0.30;;;;;;;8.45;100.00;92794.78;5093601;28;20202;-77
2024/01/07 07:13:29;;;;;;;2.22;1.08;;;;;;;8.64;100.00;92802.00;5095729;28;20241;-76
2024/01/07 07:15:56;;;;;;;1.75;1.55;;;;;;;8.73;100.00;92791.78;5093960;28;20274;-77
2024/01/07 07:18:24;;;;;;;0.20;0.20;;;;;;;8.63;100.00;92778.88;5094677;28;20206;-76
2024/01/07 07:20:51;;;;;;;0.55;0.55;;;;;;;8.70;100.00;92776.31;5093060;28;20222;-75
2024/01/07 07:23:18;;;;;;;1.98;1.00;;;;;;;8.70;100.00;92763.59;5093300;28;20202;-77
2024/01/07 07:25:45;;;;;;;0.20;0.20;;;;;;;8.83;100.00;92773.06;5093067;28;20202;-77
2024/01/07 07:28:12;;;;;;;0.40;0.40;;;;;;;9.02;100.00;92764.06;5093561;28;20605;-78
2024/01/07 07:30:38;;;;;;;1.55;1.20;;;;;;;9.13;100.00;92758.84;5094494;28;20206;-78
2024/01/07 07:33:08;;;;;;;2.95;1.30;;;;;;;9.48;100.00;92778.25;5094821;28;20259;-78
2024/01/07 07:35:38;;;;;;;1.08;0.98;;;;;;;9.67;100.00;92788.16;5092898;28;20217;-79
2024/01/07 07:38:06;;;;;;;1.40;1.30;;;;;;;9.86;100.00;92785.28;5072797;28;20601;-80
2024/01/07 07:40:32;;;;;;;0.40;0.40;;;;;;;10.07;100.00;92784.00;5093087;28;20593;-78
2024/01/07 07:42:59;;;;;;;1.65;1.17;;;;;;;9.79;100.00;92773.63;5094497;28;20198;-77
2024/01/07 07:45:26;;;;;;;1.15;1.10;;;;;;;9.10;100.00;92773.84;5093542;28;20198;-78
2024/01/07 07:47:53;;;;;;;0.25;0.25;;;;;;;8.85;100.00;92776.16;5094352;28;20225;-77
2024/01/07 07:50:21;;;;;;;0.20;0.20;;;;;;;8.80;100.00;92767.59;5093247;28;20295;-75
2024/01/07 07:52:50;;;;;;;0.40;0.40;;;;;;;8.85;100.00;92756.50;5091933;28;20225;-79
2024/01/07 07:55:17;;;;;;;0.30;0.30;;;;;;;9.02;100.00;92747.88;5090741;28;20252;-77
2024/01/07 07:57:46;;;;;;;0.20;0.20;;;;;;;9.03;100.00;92765.63;5095676;28;20233;-77
2024/01/07 08:00:14;;;;;;;3.53;0.77;;;;;;;9.25;100.00;92762.09;5095732;28;20218;-78
2024/01/07 08:02:41;;;;;;;0.30;0.30;;;;;;;9.78;100.00;92767.44;5091677;28;20214;-76
2024/01/07 08:05:08;;;;;;;0.73;0.68;;;;;;;9.88;100.00;92761.38;5091982;28;20556;-75
2024/01/07 08:07:35;;;;;;;0.40;0.40;;;;;;;10.08;100.00;92758.50;5091859;28;20206;-77
2024/01/07 08:10:04;;;;;;;0.55;0.55;;;;;;;10.13;100.00;92755.44;5089963;28;20576;-77
2024/01/07 08:12:31;;;;;;;0.70;0.52;;;;;;;9.92;100.00;92773.00;5093335;28;20202;-76
2024/01/07 08:14:58;;;;;;;0.20;0.20;;;;;;;10.17;100.00;92767.09;5094227;28;20611;-76
2024/01/07 08:17:24;;;;;;;0.20;0.20;;;;;;;9.85;100.00;92762.09;5102850;28;20238;-76
2024/01/07 08:19:52;;;;;;;0.47;0.47;;;;;;;9.73;100.00;92759.63;5102458;28;20226;-76
2024/01/07 08:22:19;;;;;;;1.10;0.52;;;;;;;10.26;100.00;92765.66;5092351;28;20725;-77
2024/01/07 08:24:46;;;;;;;0.43;0.35;;;;;;;9.71;100.00;92761.91;5091898;28;20202;-76
2024/01/07 08:27:14;;;;;;;0.68;0.68;;;;;;;9.44;100.00;92758.47;5092277;28;20711;-76
2024/01/07 08:29:43;;;;;;;0.50;0.50;;;;;;;9.60;100.00;92758.31;5091572;28;20206;-76
2024/01/07 08:32:12;;;;;;;0.30;0.30;;;;;;;9.84;100.00;92755.13;5091768;28;20206;-76
2024/01/07 08:34:39;;;;;;;0.30;0.30;;;;;;;10.18;100.00;92763.25;5095435;28;20216;-76
2024/01/07 08:37:05;;;;;;;0.20;0.20;;;;;;;10.49;100.00;92762.03;5091866;28;20612;-75
2024/01/07 08:39:32;;;;;;;1.23;1.13;;;;;;;10.59;100.00;92755.94;5091577;28;20229;-78
2024/01/07 08:41:59;;;;;;;1.77;1.17;;;;;;;10.80;100.00;92766.16;5092328;28;20206;-77
2024/01/07 08:44:27;;;;;;;1.08;0.90;;;;;;;11.00;100.00;92764.81;5091478;28;20545;-77
2024/01/07 08:46:54;;;;;;;0.93;0.93;;;;;;;10.94;100.00;92760.88;5093345;28;20263;-76
2024/01/07 08:49:21;;;;;;;0.88;0.80;;;;;;;10.74;99.01;92752.22;5091050;28;20598;-78
2024/01/07 08:51:48;;;;;;;0.45;0.45;;;;;;;10.75;100.00;92763.81;5105469;28;20220;-76
2024/01/07 08:54:15;;;;;;;1.93;1.20;;;;;;;10.52;100.00;92756.66;5100785;28;20414;-80
2024/01/07 08:56:41;;;;;;;0.77;0.77;;;;;;;10.38;100.00;92755.75;5073639;28;20447;-78
2024/01/07 08:59:08;;;;;;;1.27;1.20;;;;;;;10.60;100.00;92752.09;5091661;28;20202;-77
2024/01/07 09:01:37;;;;;;;2.45;1.35;;;;;;;10.51;100.00;92736.16;5091512;28;20643;-79
2024/01/07 09:04:04;;;;;;;0.57;0.43;;;;;;;10.80;100.00;92749.91;5090322;28;20252;-79
2024/01/07 09:06:32;;;;;;;0.65;0.65;;;;;;;10.41;100.00;92744.94;5092845;28;20620;-79
2024/01/07 09:08:59;;;;;;;0.60;0.60;;;;;;;10.23;100.00;92749.41;5094041;28;20211;-78
2024/01/07 09:11:26;;;;;;;0.20;0.20;;;;;;;10.38;100.00;92756.53;5091682;28;20202;-78
2024/01/07 09:13:53;;;;;;;0.25;0.25;;;;;;;10.35;100.00;92757.28;5091534;28;20655;-78
2024/01/07 09:16:19;;;;;;;0.50;0.50;;;;;;;10.75;100.00;92756.47;5093281;28;20558;-78
2024/01/07 09:18:48;;;;;;;0.60;0.60;;;;;;;11.12;100.00;92764.50;5090672;28;20570;-78
2024/01/07 09:21:15;;;;;;;1.95;0.50;;;;;;;11.47;97.88;92761.25;5090986;28;20215;-79
2024/01/07 09:23:42;;;;;;;1.27;0.93;;;;;;;12.00;97.46;92758.84;5094298;28;20855;-78
2024/01/07 09:26:09;;;;;;;0.38;0.38;;;;;;;11.43;95.58;92754.25;5089769;28;20202;-79
2024/01/07 09:28:36;;;;;;;1.08;1.00;;;;;;;11.14;95.34;92753.28;5090634;28;20211;-77
2024/01/07 09:31:02;;;;;;;0.57;0.57;;;;;;;10.76;97.27;92758.03;5092838;28;20256;-77
2024/01/07 09:33:29;;;;;;;0.50;0.40;;;;;;;10.92;98.95;92741.53;5090768;28;20206;-79
2024/01/07 09:35:58;;;;;;;0.95;0.43;;;;;;;10.95;97.17;92751.59;5090623;28;20569;-76
2024/01/07 09:38:25;;;;;;;1.15;0.75;;;;;;;11.63;98.67;92741.94;5089345;28;20289;-78
2024/01/07 09:40:53;;;;;;;0.30;0.30;;;;;;;11.92;93.94;92737.47;5090567;28;20347;-78
2024/01/07 09:43:20;;;;;;;1.65;1.08;;;;;;;12.33;93.29;92736.03;5090036;28;20201;-78
2024/01/07 09:45:47;;;;;;;0.30;0.30;;;;;;;12.74;88.85;92728.34;5091785;28;20573;-78
2024/01/07 09:48:15;;;;;;;1.80;1.23;;;;;;;12.72;89.17;92735.31;5090302;28;20210;-76
2024/01/07 09:50:42;;;;;;;2.58;1.00;;;;;;;12.38;89.33;92732.19;5089815;28;20738;-77
2024/01/07 09:53:15;;;;;;;0.40;0.40;;;;;;;12.22;87.75;92737.97;5090453;28;20823;-75
2024/01/07 09:55:52;;;;;;;2.63;0.82;;;;;;;12.39;89.61;92734.50;5090434;28;20226;-79
2024/01/07 09:58:19;;;;;;;0.50;0.50;;;;;;;12.41;87.79;92734.13;5089336;28;20198;-76
2024/01/07 10:00:46;;;;;;;1.02;0.45;;;;;;;12.48;86.05;92720.56;5090397;28;20225;-76
2024/01/07 10:03:13;;;;;;;0.22;0.22;;;;;;;12.48;86.28;92715.13;5089811;28;20256;-77
2024/01/07 10:05:40;;;;;;;0.40;0.40;;;;;;;13.07;85.32;92726.41;5090469;28;20210;-76
2024/01/07 10:08:08;;;;;;;1.02;0.75;;;;;;;13.08;83.49;92717.09;5090769;28;20221;-77
2024/01/07 10:10:40;;;;;;;2.55;1.60;;;;;;;12.21;85.30;92722.06;5090747;28;20194;-77
2024/01/07 10:13:08;;;;;;;0.55;0.55;;;;;;;12.17;86.00;92727.47;5089396;28;20228;-78
2024/01/07 10:15:35;;;;;;;0.65;0.65;;;;;;;12.14;87.81;92716.63;5089998;28;20241;-76
2024/01/07 10:18:05;;;;;;;0.30;0.30;;;;;;;11.35;88.41;92721.66;5094291;28;20218;-77
2024/01/07 10:20:33;;;;;;;1.75;0.95;;;;;;;11.27;90.99;92722.78;5093927;28;20641;-79
2024/01/07 10:23:00;;;;;;;0.20;0.20;;;;;;;11.22;91.42;92712.28;5094231;28;20297;-79
2024/01/07 10:25:27;;;;;;;0.47;0.47;;;;;;;10.80;91.08;92712.00;5091025;28;20211;-76
2024/01/07 10:28:00;;;;;;;0.68;0.68;;;;;;;10.95;92.22;92697.41;5094837;28;20198;-77
2024/01/07 10:30:27;;;;;;;0.50;0.50;;;;;;;11.17;92.08;92693.72;5094587;28;20191;-76
2024/01/07 10:32:57;;;;;;;0.63;0.63;;;;;;;11.33;90.63;92682.56;5093994;28;20222;-77
2024/01/07 10:35:29;;;;;;;0.10;0.10;;;;;;;11.35;89.77;92683.72;5088917;28;20294;-76
2024/01/07 10:37:56;;;;;;;0.52;0.52;;;;;;;11.83;86.84;92686.28;5089714;28;20290;-78
2024/01/07 10:40:23;;;;;;;0.20;0.20;;;;;;;11.42;87.16;92671.38;5092692;28;20207;-77
2024/01/07 10:42:52;;;;;;;0.30;0.30;;;;;;;11.47;87.49;92684.56;5100844;28;20568;-76
2024/01/07 10:45:20;;;;;;;0.30;0.30;;;;;;;11.46;88.29;92677.59;5100529;28;20210;-77
2024/01/07 10:47:51;;;;;;;0.52;0.52;;;;;;;11.53;87.64;92688.47;5105892;28;20214;-76
2024/01/07 10:50:18;;;;;;;0.60;0.60;;;;;;;11.73;87.81;92671.50;5092794;28;20287;-77
2024/01/07 10:52:51;;;;;;;0.20;0.20;;;;;;;11.92;86.91;92672.34;5092306;28;20198;-77
2024/01/07 10:55:20;;;;;;;2.20;0.63;;;;;;;12.30;86.92;92681.75;5091362;28;20281;-76
2024/01/07 10:57:49;;;;;;;1.65;0.55;;;;;;;12.35;85.09;92678.66;5091730;28;20247;-77
2024/01/07 11:00:19;;;;;;;0.38;0.38;;;;;;;12.33;84.63;92662.75;5095825;28;20198;-76
2024/01/07 11:03:05;;;;;;;2.03;1.00;;;;;;;11.95;85.49;92668.88;5103968;28;20554;-77
2024/01/07 11:05:39;;;;;;;0.73;0.73;;;;;;;11.74;87.46;92678.50;5098571;28;20316;-76
2024/01/07 11:08:12;;;;;;;0.30;0.30;;;;;;;12.03;87.51;92678.56;5093031;28;20198;-77
2024/01/07 11:10:44;;;;;;;0.52;0.52;;;;;;;12.24;85.72;92675.91;5093205;28;20210;-79
2024/01/07 11:13:11;;;;;;;0.50;0.50;;;;;;;12.67;84.71;92679.44;5093528;28;20281;-77
2024/01/07 11:15:54;;;;;;;0.50;0.50;;;;;;;12.69;83.82;92665.47;5093285;28;20705;-77
2024/01/07 11:18:23;;;;;;;0.30;0.30;;;;;;;12.81;85.39;92679.44;5092636;28;20213;-77
2024/01/07 11:20:50;;;;;;;1.52;1.35;;;;;;;12.66;84.04;92677.91;5092764;28;20222;-77
2024/01/07 11:23:32;;;;;;;1.35;0.77;;;;;;;12.12;84.35;92672.81;5092387;28;20198;-77
2024/01/07 11:26:00;;;;;;;0.30;0.30;;;;;;;11.42;87.00;92676.78;5092374;28;20635;-76
2024/01/07 11:28:51;;;;;;;0.22;0.22;;;;;;;11.35;88.09;92664.75;5092027;28;20249;-77
2024/01/07 11:31:20;;;;;;;0.30;0.30;;;;;;;11.61;87.44;92674.56;5073421;28;20560;-76
2024/01/07 11:33:49;;;;;;;0.20;0.20;;;;;;;12.09;85.98;92677.06;5092951;28;20210;-77